SGAS/ASU METAR and TAF weather

Enter ICAO airport designator
Example: see airport list
Station Type Date Time Source
SGAS METAR 2016/12/08 07:00 UTC NOAA

SGAS 080700Z VRB05KT 9999 -TSRA BKN020 FEW40CB OVC080 22/21 Q1006


Station Type Date Time Source
SGAS Decoded METAR 2016/12/08 07:00 UTC NOAA

Asuncion / Aeropuerto, Paraguay (SGAS) 25-16S 057-38W 101M
Dec 08, 2016 - 02:00 AM EST / 2016.12.08 0700 UTC
Wind: Variable at 6 MPH (5 KT):0
Visibility: greater than 7 mile(s):0
Sky conditions: overcast
Weather: light rain with thunder; Cumulonimbus clouds observed
Temperature: 71 F (22 C)
Dew Point: 69 F (21 C)
Relative Humidity: 94%
Pressure (altimeter): 29.71 in. Hg (1006 hPa)
ob: SGAS 080700Z VRB05KT 9999 -TSRA BKN020 FEW40CB OVC080 22/21 Q1006
cycle: 7

Station Type Date Time Source
SGAS TAF 2016/12/08 06:42 UTC NOAA

TAF TAF SGAS 080441Z 0806/0906 03011KT 360V070 9999 -TSRA BKN015 FEW040CB TX26/0818Z TN21/0809Z 0808/0811 2000 TSRA OVC010 FEW040CB
BECMG 0813/0815 VRB04KT 8000 RA BKN012
BECMG 0816/0819 14008KT 9999 SCT027